Terminal Aerodrome Forecast
Issued by NWS Flagstaff, AZ

Home | Current Version | Previous Version | Text Only | Print | Product List | Glossary On
Versions: 1 2 3 4 5 6 7 8 9 10 11 12 13 14 15 16 17 18
000
FTUS45 KFGZ 252329
TAFFLG
TAF
KFLG 252329Z 2600/2624 VRB06KT P6SM VCSH BKN070 OVC110
     FM260200 VRB05KT P6SM SCT070 BKN100
     FM262000 VRB05KT P6SM SCT070 BKN100 PROB30 2620/2624 TSRA
      BKN070CB=

USA.gov is the U.S. government's official web portal to all federal, state and local government web resources and services.